Time;durP1;ratioP1;P1;durP2;ratioP2;P2;SDS_P1;SDS_P2;PMS_P1;PMS_P2;Temp;Humidity;BMP_temperature;BMP_pressure;BME280_temperature;BME280_humidity;BME280_pressure;Samples;Min_cycle;Max_cycle;Signal;HPM_P1;HPM_P2
2021/12/04 00:00:23;;;;;;;51.30;47.37;;;1.70;99.90;;;;;;5081359;28;20633;-65
2021/12/04 00:03:17;;;;;;;49.50;45.80;;;1.70;99.90;;;;;;5084556;28;20230;-66
2021/12/04 00:06:10;;;;;;;50.43;46.60;;;1.60;99.90;;;;;;5080469;28;20242;-66
2021/12/04 00:09:05;;;;;;;50.90;46.83;;;1.70;99.90;;;;;;5081821;28;20222;-66
2021/12/04 00:11:55;;;;;;;51.27;47.27;;;1.70;99.90;;;;;;5079201;28;20228;-64
2021/12/04 00:14:45;;;;;;;50.50;46.70;;;1.70;99.90;;;;;;5080934;28;20273;-64
2021/12/04 00:17:34;;;;;;;52.90;48.70;;;1.60;99.90;;;;;;5077928;28;20305;-67
2021/12/04 00:20:27;;;;;;;50.40;46.47;;;1.60;99.90;;;;;;5084910;28;20732;-64
2021/12/04 00:23:16;;;;;;;51.17;47.23;;;1.70;99.90;;;;;;5080661;28;20741;-66
2021/12/04 00:26:05;;;;;;;51.03;47.37;;;1.60;99.90;;;;;;5091324;28;20223;-64
2021/12/04 00:28:54;;;;;;;51.47;47.67;;;1.60;99.90;;;;;;5082260;28;20223;-72
2021/12/04 00:31:47;;;;;;;51.00;47.13;;;1.60;99.90;;;;;;5077940;28;20231;-65
2021/12/04 00:34:39;;;;;;;52.07;47.93;;;1.50;99.90;;;;;;5081756;28;20227;-62
2021/12/04 00:50:00;;;;;;;50.23;46.03;;;1.50;99.90;;;;;;5080245;28;20212;-66
2021/12/04 00:52:49;;;;;;;50.77;46.73;;;1.50;99.90;;;;;;5109590;27;20234;-65
2021/12/04 00:55:38;;;;;;;52.63;48.27;;;1.50;99.90;;;;;;5079519;28;20235;-63
2021/12/04 00:58:27;;;;;;;50.83;46.63;;;1.50;99.90;;;;;;5081348;28;20210;-65
2021/12/04 01:01:16;;;;;;;52.10;47.90;;;1.50;99.90;;;;;;5077620;28;20238;-65
2021/12/04 01:04:05;;;;;;;51.67;47.53;;;1.50;99.90;;;;;;5081578;28;20219;-65
2021/12/04 01:06:54;;;;;;;52.10;47.57;;;1.50;99.90;;;;;;5086055;28;20229;-63
2021/12/04 01:09:48;;;;;;;50.10;46.10;;;1.50;99.90;;;;;;5077806;28;20219;-64
2021/12/04 01:12:37;;;;;;;53.30;48.97;;;1.40;99.90;;;;;;5079237;28;20215;-64
2021/12/04 01:15:25;;;;;;;52.80;48.40;;;1.40;99.90;;;;;;5080632;28;20235;-64
2021/12/04 01:18:14;;;;;;;53.40;48.80;;;1.40;99.90;;;;;;5084665;28;20232;-63
2021/12/04 01:21:03;;;;;;;52.80;48.40;;;1.40;99.90;;;;;;5083041;28;20221;-65
2021/12/04 01:23:51;;;;;;;52.63;48.40;;;1.40;99.90;;;;;;5081390;28;20223;-64
2021/12/04 01:26:41;;;;;;;49.80;45.80;;;1.30;99.90;;;;;;5080787;28;20227;-65
2021/12/04 01:29:30;;;;;;;50.27;46.33;;;1.30;99.90;;;;;;5081183;28;20239;-64
2021/12/04 01:32:19;;;;;;;52.87;48.47;;;1.30;99.90;;;;;;5083136;28;20910;-65
2021/12/04 01:35:08;;;;;;;53.10;48.43;;;1.30;99.90;;;;;;5078412;28;20579;-64
2021/12/04 01:37:57;;;;;;;51.73;47.73;;;1.30;99.90;;;;;;5081767;28;20219;-64
2021/12/04 01:40:46;;;;;;;50.20;45.97;;;1.30;99.90;;;;;;5079764;28;20231;-65
2021/12/04 01:43:36;;;;;;;52.83;48.43;;;1.30;99.90;;;;;;5081965;28;20239;-65
2021/12/04 01:46:25;;;;;;;53.10;48.50;;;1.30;99.90;;;;;;5075404;28;20223;-66
2021/12/04 01:49:14;;;;;;;51.57;47.17;;;1.30;99.90;;;;;;5077589;28;20627;-66
2021/12/04 01:52:02;;;;;;;53.87;49.23;;;1.30;99.90;;;;;;5086947;28;20223;-66
2021/12/04 01:54:51;;;;;;;51.57;47.33;;;1.30;99.90;;;;;;5082079;28;20228;-65
2021/12/04 01:57:40;;;;;;;53.33;48.83;;;1.30;99.90;;;;;;5082277;28;20227;-64
2021/12/04 02:00:31;;;;;;;51.07;46.87;;;1.20;99.90;;;;;;5080962;28;20230;-65
2021/12/04 02:03:20;;;;;;;53.93;48.77;;;1.30;99.90;;;;;;5078256;28;20226;-64
2021/12/04 02:06:08;;;;;;;53.87;48.93;;;1.30;99.90;;;;;;5082653;28;20544;-64
2021/12/04 02:08:57;;;;;;;52.20;47.70;;;1.30;99.90;;;;;;5082685;28;20230;-65
2021/12/04 02:11:46;;;;;;;54.57;49.77;;;1.20;99.90;;;;;;5080590;28;20229;-64
2021/12/04 02:14:36;;;;;;;54.00;49.27;;;1.20;99.90;;;;;;5082982;28;20223;-63
2021/12/04 02:17:26;;;;;;;54.93;50.00;;;1.10;99.90;;;;;;5081823;28;20219;-65
2021/12/04 02:20:20;;;;;;;53.07;48.63;;;1.20;99.90;;;;;;5084196;28;20230;-64
2021/12/04 02:23:10;;;;;;;54.77;49.97;;;1.10;99.90;;;;;;5083400;28;20751;-65
2021/12/04 02:25:58;;;;;;;53.57;48.93;;;1.10;99.90;;;;;;5083242;28;20299;-63
2021/12/04 02:28:47;;;;;;;54.60;49.83;;;1.10;99.90;;;;;;5084434;28;20237;-64
2021/12/04 02:31:39;;;;;;;57.17;51.90;;;1.10;99.90;;;;;;5084293;28;20565;-64
2021/12/04 02:34:29;;;;;;;54.70;49.50;;;1.10;99.90;;;;;;5085439;28;20230;-65
2021/12/04 02:37:19;;;;;;;54.40;49.40;;;1.10;99.90;;;;;;5082375;28;20231;-64
2021/12/04 02:40:10;;;;;;;55.00;50.13;;;1.10;99.90;;;;;;5082866;28;20223;-65
2021/12/04 02:42:58;;;;;;;54.60;49.70;;;1.00;99.90;;;;;;5085553;28;20227;-63
2021/12/04 02:45:47;;;;;;;55.10;50.03;;;1.00;99.90;;;;;;5081132;28;20223;-64
2021/12/04 02:48:37;;;;;;;55.00;50.03;;;0.90;99.90;;;;;;5092917;28;20238;-65
2021/12/04 02:51:26;;;;;;;57.80;52.60;;;0.90;99.90;;;;;;5083374;28;20227;-66
2021/12/04 02:54:16;;;;;;;58.10;52.70;;;0.90;99.90;;;;;;5082181;28;20655;-65
2021/12/04 02:57:07;;;;;;;57.40;52.17;;;0.90;99.90;;;;;;5080702;28;20219;-64
2021/12/04 02:59:56;;;;;;;58.67;52.90;;;0.90;99.90;;;;;;5081564;28;20212;-65
2021/12/04 03:02:45;;;;;;;58.60;53.50;;;0.80;99.90;;;;;;5082318;28;20977;-65
2021/12/04 03:05:34;;;;;;;59.17;53.10;;;0.90;99.90;;;;;;5081952;28;20222;-65
2021/12/04 03:08:23;;;;;;;59.20;53.87;;;0.90;99.90;;;;;;5082679;27;20228;-65
2021/12/04 03:11:16;;;;;;;61.47;55.33;;;0.90;99.90;;;;;;5092671;28;20713;-65
2021/12/04 03:14:05;;;;;;;58.33;53.00;;;0.90;99.90;;;;;;5077984;28;20219;-65
2021/12/04 03:16:54;;;;;;;59.00;53.13;;;0.90;99.90;;;;;;5082283;28;20237;-65
2021/12/04 03:19:43;;;;;;;58.33;52.67;;;0.90;99.90;;;;;;5084552;28;20219;-65
2021/12/04 03:22:31;;;;;;;59.33;53.63;;;0.90;99.90;;;;;;5076245;28;20231;-64
2021/12/04 03:25:20;;;;;;;58.60;53.03;;;0.90;99.90;;;;;;5083009;28;20609;-64
2021/12/04 03:28:13;;;;;;;62.20;56.10;;;0.90;99.90;;;;;;5081327;28;20234;-64
2021/12/04 03:31:06;;;;;;;60.53;54.23;;;0.90;99.90;;;;;;5079940;28;20226;-65
2021/12/04 03:40:22;;;;;;;62.17;55.77;;;0.90;99.90;;;;;;5094661;28;20226;-65
2021/12/04 03:43:12;;;;;;;59.80;53.80;;;0.80;99.90;;;;;;5082841;28;20226;-65
2021/12/04 03:46:02;;;;;;;59.93;54.23;;;0.80;99.90;;;;;;5080571;28;20238;-65
2021/12/04 03:48:52;;;;;;;60.80;55.10;;;0.80;99.90;;;;;;5078468;28;20699;-64
2021/12/04 03:51:40;;;;;;;62.47;56.40;;;0.80;99.90;;;;;;5077854;28;20247;-64
2021/12/04 03:54:29;;;;;;;59.50;53.80;;;0.80;99.90;;;;;;5080781;28;21308;-65
2021/12/04 03:57:18;;;;;;;61.50;55.40;;;0.80;99.90;;;;;;5082254;28;20566;-64
2021/12/04 04:00:10;;;;;;;60.23;54.30;;;0.80;99.90;;;;;;5083463;28;20230;-64
2021/12/04 04:02:59;;;;;;;60.27;54.27;;;0.80;99.90;;;;;;5085424;28;20215;-65
2021/12/04 04:05:48;;;;;;;58.20;52.80;;;0.90;99.90;;;;;;5083127;28;20238;-64
2021/12/04 04:08:37;;;;;;;60.80;54.87;;;0.80;99.90;;;;;;5082684;28;20253;-64
2021/12/04 04:11:25;;;;;;;61.30;55.37;;;0.90;99.90;;;;;;5078409;28;20266;-65
2021/12/04 04:14:15;;;;;;;59.27;53.63;;;0.90;99.90;;;;;;5084630;28;20706;-65
2021/12/04 04:17:06;;;;;;;61.80;55.63;;;0.80;99.90;;;;;;5081749;28;20218;-64
2021/12/04 04:19:54;;;;;;;62.10;56.13;;;0.90;99.90;;;;;;5077433;28;20227;-62
2021/12/04 04:22:44;;;;;;;59.93;54.17;;;0.90;99.90;;;;;;5081138;28;20264;-63
2021/12/04 04:25:32;;;;;;;59.73;53.97;;;0.90;99.90;;;;;;5081358;28;20249;-64
2021/12/04 04:28:21;;;;;;;58.20;52.43;;;0.90;99.90;;;;;;5085499;28;20237;-64
2021/12/04 04:31:11;;;;;;;58.03;52.53;;;0.90;99.90;;;;;;5080103;28;20223;-64
2021/12/04 04:34:04;;;;;;;58.23;52.70;;;0.90;99.90;;;;;;5083888;28;20218;-65
2021/12/04 04:37:10;;;;;;;58.30;52.57;;;0.90;99.90;;;;;;5078395;28;20227;-65
2021/12/04 04:59:09;;;;;;;58.80;52.73;;;1.00;99.90;;;;;;4999229;28;20245;-65
2021/12/04 05:11:21;;;;;;;55.00;50.33;;;1.00;99.90;;;;;;5076783;28;20227;-63
2021/12/04 05:14:17;;;;;;;55.37;50.37;;;1.00;99.90;;;;;;5075510;28;20222;-63
2021/12/04 05:17:08;;;;;;;56.47;51.43;;;1.00;99.90;;;;;;5075102;28;20219;-65
2021/12/04 05:19:58;;;;;;;54.90;49.70;;;1.10;99.90;;;;;;5060979;28;20714;-64
2021/12/04 05:22:47;;;;;;;56.60;51.40;;;1.00;99.90;;;;;;5067579;28;20232;-64
2021/12/04 05:25:36;;;;;;;57.20;51.60;;;1.10;99.90;;;;;;5072453;28;20227;-63
2021/12/04 05:28:26;;;;;;;55.53;50.27;;;1.20;99.90;;;;;;5075433;28;20230;-66
2021/12/04 05:31:16;;;;;;;53.93;49.23;;;1.20;99.90;;;;;;5062399;28;20321;-65
2021/12/04 05:34:04;;;;;;;56.67;51.73;;;1.20;99.90;;;;;;5060262;28;20294;-65
2021/12/04 05:36:54;;;;;;;53.80;48.97;;;1.10;99.90;;;;;;5072013;28;20220;-62
2021/12/04 05:39:43;;;;;;;54.20;49.53;;;1.10;99.90;;;;;;5052724;28;20213;-65
2021/12/04 05:42:32;;;;;;;56.50;51.60;;;1.20;99.90;;;;;;5057231;28;20296;-64
2021/12/04 05:45:23;;;;;;;54.27;49.53;;;1.10;99.90;;;;;;5072094;28;20965;-65
2021/12/04 05:48:14;;;;;;;52.03;47.43;;;1.20;99.90;;;;;;5061030;28;20224;-65
2021/12/04 05:51:20;;;;;;;55.67;50.57;;;1.20;99.90;;;;;;5061962;28;20284;-65
2021/12/04 05:54:30;;;;;;;53.40;48.77;;;1.10;99.90;;;;;;5057538;28;20243;-64
2021/12/04 05:57:18;;;;;;;54.20;49.70;;;1.20;99.90;;;;;;5063022;28;20276;-64
2021/12/04 06:00:09;;;;;;;51.43;46.90;;;1.20;99.90;;;;;;5073270;28;20588;-65
2021/12/04 06:02:58;;;;;;;52.40;47.93;;;1.20;99.90;;;;;;5074204;28;20238;-64
2021/12/04 06:05:47;;;;;;;53.70;49.40;;;1.20;99.90;;;;;;5073290;28;20307;-64
2021/12/04 06:08:35;;;;;;;54.60;50.00;;;1.20;99.90;;;;;;5072688;28;20219;-63
2021/12/04 06:11:26;;;;;;;53.80;49.30;;;1.20;99.90;;;;;;5072760;28;20235;-63
2021/12/04 06:14:15;;;;;;;56.20;51.47;;;1.20;99.90;;;;;;5070236;28;20224;-64
2021/12/04 06:17:04;;;;;;;53.37;48.77;;;1.30;99.90;;;;;;5060033;28;20212;-65
2021/12/04 06:22:59;;;;;;;53.03;48.63;;;1.30;99.90;;;;;;5060233;28;20227;-66
2021/12/04 06:25:48;;;;;;;52.07;47.83;;;1.30;99.90;;;;;;5058933;28;20228;-64
2021/12/04 06:28:38;;;;;;;54.10;49.67;;;1.30;99.90;;;;;;5037531;28;20638;-66
2021/12/04 06:31:27;;;;;;;52.07;47.77;;;1.30;99.90;;;;;;5058615;28;20246;-66
2021/12/04 06:34:16;;;;;;;55.67;50.93;;;1.40;99.90;;;;;;5060567;28;20220;-63
2021/12/04 06:37:05;;;;;;;53.73;49.23;;;1.40;99.90;;;;;;5059472;28;20221;-65
2021/12/04 06:39:53;;;;;;;54.13;49.57;;;1.50;99.90;;;;;;5043644;28;20222;-64
2021/12/04 06:42:43;;;;;;;53.30;48.83;;;1.50;99.90;;;;;;5049715;28;20235;-66
2021/12/04 06:45:37;;;;;;;51.80;47.80;;;1.50;99.90;;;;;;5058328;28;20580;-64
2021/12/04 06:48:32;;;;;;;51.60;47.40;;;1.60;99.90;;;;;;5046642;28;20220;-66
2021/12/04 06:51:25;;;;;;;52.03;47.97;;;1.60;99.90;;;;;;5056310;28;20345;-64
2021/12/04 06:54:17;;;;;;;52.83;48.73;;;1.60;99.90;;;;;;5054012;28;20327;-64
2021/12/04 06:57:09;;;;;;;51.10;47.07;;;1.60;99.90;;;;;;5063835;28;20220;-66
2021/12/04 06:59:58;;;;;;;51.53;47.43;;;1.60;99.90;;;;;;5060903;28;20221;-65
2021/12/04 07:02:52;;;;;;;50.50;46.17;;;1.60;99.90;;;;;;5072193;28;20220;-65
2021/12/04 07:05:44;;;;;;;53.47;48.80;;;1.70;99.90;;;;;;5057350;28;20238;-64
2021/12/04 07:08:33;;;;;;;50.37;46.30;;;1.70;99.90;;;;;;5059560;28;20219;-64
2021/12/04 07:11:22;;;;;;;51.83;47.53;;;1.80;99.90;;;;;;5062247;28;20241;-64
2021/12/04 07:14:11;;;;;;;49.20;45.33;;;1.80;99.90;;;;;;5062177;28;20212;-64
2021/12/04 07:17:02;;;;;;;50.07;46.03;;;1.80;99.90;;;;;;5057909;28;21028;-64
2021/12/04 07:19:52;;;;;;;50.50;46.70;;;1.80;99.90;;;;;;5060297;28;20342;-64
2021/12/04 07:22:41;;;;;;;50.73;46.50;;;1.90;99.90;;;;;;5057187;28;20225;-63
2021/12/04 07:25:30;;;;;;;50.53;46.43;;;1.90;99.90;;;;;;5058414;28;20228;-63
2021/12/04 07:28:19;;;;;;;51.30;47.17;;;1.90;99.90;;;;;;5052175;28;20717;-65
2021/12/04 07:31:08;;;;;;;50.73;46.63;;;1.90;99.90;;;;;;5056607;28;20311;-65
2021/12/04 07:33:57;;;;;;;49.90;45.93;;;1.90;99.90;;;;;;5062922;28;20239;-64
2021/12/04 07:36:47;;;;;;;50.00;46.00;;;2.00;99.90;;;;;;5029014;28;20233;-64
2021/12/04 07:39:36;;;;;;;52.27;47.97;;;2.10;99.90;;;;;;5061031;28;20227;-65
2021/12/04 07:42:25;;;;;;;55.00;50.13;;;2.10;99.90;;;;;;5041954;28;20239;-64
2021/12/04 07:45:14;;;;;;;49.83;45.97;;;2.10;99.90;;;;;;5056465;28;20720;-64
2021/12/04 07:48:03;;;;;;;49.20;45.50;;;2.10;99.90;;;;;;5058869;28;20346;-66
2021/12/04 07:50:56;;;;;;;51.17;47.20;;;2.10;99.90;;;;;;5060008;28;20243;-65
2021/12/04 07:53:47;;;;;;;50.00;46.07;;;2.20;99.90;;;;;;5056769;28;20224;-65
2021/12/04 07:56:36;;;;;;;51.40;47.23;;;2.20;99.90;;;;;;5046239;28;20216;-64
2021/12/04 07:59:26;;;;;;;49.60;45.73;;;2.30;99.90;;;;;;5059976;28;20700;-64
2021/12/04 08:02:16;;;;;;;48.93;44.97;;;2.40;99.90;;;;;;5056759;28;20216;-65
2021/12/04 08:05:06;;;;;;;50.67;46.27;;;2.40;99.90;;;;;;5056273;28;20600;-65
2021/12/04 08:07:55;;;;;;;47.80;44.20;;;2.40;99.90;;;;;;5056138;28;20230;-64
2021/12/04 08:10:45;;;;;;;48.67;44.80;;;2.40;99.90;;;;;;5058924;28;20588;-64
2021/12/04 08:13:34;;;;;;;49.30;45.43;;;2.40;99.90;;;;;;5043672;28;20221;-66
2021/12/04 08:16:25;;;;;;;49.50;45.70;;;2.50;99.90;;;;;;5056386;28;20800;-65
2021/12/04 08:19:14;;;;;;;49.03;45.43;;;2.50;99.90;;;;;;5056062;28;20708;-64
2021/12/04 08:22:04;;;;;;;50.23;46.80;;;2.60;99.90;;;;;;5045465;28;20446;-66
2021/12/04 08:24:53;;;;;;;48.97;45.37;;;2.60;99.90;;;;;;5045900;28;20251;-65
2021/12/04 08:27:43;;;;;;;50.00;46.50;;;2.60;99.90;;;;;;5061666;28;20220;-62
2021/12/04 08:30:33;;;;;;;52.03;48.10;;;2.70;99.90;;;;;;5046548;28;20235;-64
2021/12/04 08:33:22;;;;;;;50.33;46.70;;;2.70;99.90;;;;;;5054915;28;20313;-65
2021/12/04 08:36:11;;;;;;;47.97;44.47;;;2.80;99.90;;;;;;5060153;28;20657;-64
2021/12/04 08:39:00;;;;;;;50.27;46.70;;;2.80;99.90;;;;;;5055378;28;20584;-64
2021/12/04 08:41:49;;;;;;;51.33;47.67;;;2.80;99.90;;;;;;5058584;28;20229;-66
2021/12/04 08:44:39;;;;;;;48.70;45.30;;;2.90;99.90;;;;;;5055540;28;20318;-66
2021/12/04 08:47:28;;;;;;;49.37;45.40;;;2.90;99.90;;;;;;5056635;28;20219;-66
2021/12/04 08:50:21;;;;;;;48.53;44.87;;;2.90;99.90;;;;;;5040822;28;20224;-65
2021/12/04 08:53:12;;;;;;;50.00;46.20;;;3.00;99.90;;;;;;5043347;28;20277;-64
2021/12/04 08:56:00;;;;;;;49.27;45.30;;;3.00;99.90;;;;;;5059431;28;20233;-64
2021/12/04 08:58:50;;;;;;;50.23;46.67;;;3.00;99.90;;;;;;5054393;28;20227;-66
2021/12/04 09:01:44;;;;;;;50.43;46.80;;;3.10;99.90;;;;;;5056817;28;20228;-64
2021/12/04 09:04:35;;;;;;;48.77;45.10;;;3.10;99.90;;;;;;5021423;28;20222;-65
2021/12/04 09:07:24;;;;;;;46.67;43.27;;;3.20;99.90;;;;;;5021018;28;20374;-64
2021/12/04 09:10:14;;;;;;;53.37;49.17;;;3.20;99.90;;;;;;5012800;28;20229;-65
2021/12/04 09:13:03;;;;;;;51.77;47.73;;;3.30;99.90;;;;;;5015913;28;20223;-65
2021/12/04 09:15:57;;;;;;;53.43;49.13;;;3.20;99.90;;;;;;5019286;28;20237;-64
2021/12/04 09:18:47;;;;;;;49.83;46.23;;;3.20;99.90;;;;;;5022555;28;20222;-65
2021/12/04 09:21:37;;;;;;;49.40;45.57;;;3.20;99.90;;;;;;5022661;28;20671;-64
2021/12/04 09:24:28;;;;;;;49.17;45.43;;;3.20;99.90;;;;;;5014992;28;20235;-64
2021/12/04 09:27:21;;;;;;;48.47;44.93;;;3.20;99.90;;;;;;5016060;28;20231;-65
2021/12/04 09:30:33;;;;;;;50.23;46.63;;;3.20;99.90;;;;;;5013550;28;20311;-64
2021/12/04 09:33:54;;;;;;;48.43;44.90;;;3.30;99.90;;;;;;5017032;28;20226;-64
2021/12/04 09:37:01;;;;;;;50.03;46.53;;;3.30;99.90;;;;;;5016762;28;20706;-65
2021/12/04 10:01:53;;;;;;;47.90;44.17;;;3.40;99.90;;;;;;5010390;28;20227;-64
2021/12/04 10:15:21;;;;;;;47.73;44.53;;;3.50;99.90;;;;;;4978741;28;20231;-66
2021/12/04 10:18:26;;;;;;;48.80;45.27;;;3.50;99.90;;;;;;4981320;28;20215;-63
2021/12/04 10:33:43;;;;;;;49.77;46.37;;;3.70;99.90;;;;;;5021777;28;20589;-64
2021/12/04 10:36:34;;;;;;;50.13;46.50;;;3.70;99.90;;;;;;5023880;28;20214;-64
2021/12/04 10:39:25;;;;;;;49.40;45.63;;;3.80;99.90;;;;;;5018113;28;20230;-64
2021/12/04 10:42:16;;;;;;;49.23;45.83;;;3.90;99.90;;;;;;5024136;28;20229;-64
2021/12/04 10:45:05;;;;;;;51.30;47.57;;;3.90;99.90;;;;;;5019319;28;20219;-65
2021/12/04 10:47:58;;;;;;;50.27;46.77;;;3.90;99.90;;;;;;5021200;28;20237;-63
2021/12/04 10:50:52;;;;;;;49.33;45.70;;;3.90;99.90;;;;;;5015619;28;20720;-64
2021/12/04 10:53:48;;;;;;;50.77;47.23;;;3.90;99.90;;;;;;5018643;28;20218;-64
2021/12/04 10:56:59;;;;;;;51.23;47.40;;;3.90;99.90;;;;;;5023781;28;20219;-62
2021/12/04 10:59:54;;;;;;;50.60;46.90;;;3.90;99.90;;;;;;5033199;28;20227;-66
2021/12/04 11:02:46;;;;;;;48.83;45.53;;;3.90;99.90;;;;;;5022425;28;20400;-64
2021/12/04 11:28:09;;;;;;;53.13;49.23;;;4.00;99.90;;;;;;5031714;28;20232;-63
2021/12/04 11:37:20;;;;;;;49.40;45.90;;;4.00;99.90;;;;;;5054936;28;20717;-65
2021/12/04 11:43:18;;;;;;;49.67;46.00;;;4.10;99.90;;;;;;5058169;28;20213;-64
2021/12/04 11:46:20;;;;;;;51.30;47.40;;;4.10;99.90;;;;;;5072994;28;20290;-65
2021/12/04 11:49:12;;;;;;;52.03;47.73;;;4.10;99.90;;;;;;5045596;28;20241;-65
2021/12/04 11:52:02;;;;;;;51.03;47.23;;;4.10;99.90;;;;;;5061049;28;20253;-64
2021/12/04 11:54:57;;;;;;;49.40;45.43;;;4.10;99.90;;;;;;5055371;28;20332;-65
2021/12/04 11:57:45;;;;;;;50.57;46.87;;;4.20;99.90;;;;;;5056188;28;20224;-65
2021/12/04 12:00:37;;;;;;;50.97;47.17;;;4.20;99.90;;;;;;5051926;28;20224;-64
2021/12/04 12:03:28;;;;;;;47.25;43.42;;;4.10;99.90;;;;;;5054163;28;20437;-66
2021/12/04 12:06:16;;;;;;;48.53;44.60;;;4.20;99.90;;;;;;5056280;28;20239;-64
2021/12/04 12:09:09;;;;;;;49.50;45.73;;;4.30;99.90;;;;;;5059220;28;20569;-65
2021/12/04 12:12:01;;;;;;;50.07;46.27;;;4.20;99.90;;;;;;5057725;28;20237;-64
2021/12/04 12:14:54;;;;;;;50.10;46.30;;;4.20;99.90;;;;;;5040694;28;20601;-64
2021/12/04 12:17:45;;;;;;;50.13;46.17;;;4.20;99.90;;;;;;5043685;28;20230;-65
2021/12/04 12:20:50;;;;;;;50.07;46.17;;;4.20;99.90;;;;;;5041238;28;20305;-65
2021/12/04 12:27:15;;;;;;;50.33;46.57;;;4.20;99.90;;;;;;5044875;28;20303;-64
2021/12/04 12:33:28;;;;;;;52.50;48.13;;;4.20;99.90;;;;;;5039762;28;20696;-64
2021/12/04 12:36:22;;;;;;;51.47;47.40;;;4.20;99.90;;;;;;5048385;28;20221;-63
2021/12/04 12:39:16;;;;;;;52.03;48.10;;;4.20;99.90;;;;;;5039663;28;20233;-65
2021/12/04 12:42:05;;;;;;;50.00;46.50;;;4.20;99.90;;;;;;5034696;28;20286;-65
2021/12/04 12:44:55;;;;;;;52.17;48.07;;;4.20;99.90;;;;;;5035838;28;20570;-64
2021/12/04 12:47:51;;;;;;;51.03;47.30;;;4.20;99.90;;;;;;5024488;28;20221;-64
2021/12/04 12:50:46;;;;;;;50.70;47.00;;;4.20;99.90;;;;;;5046471;28;20230;-64
2021/12/04 12:53:42;;;;;;;51.63;47.60;;;4.20;99.90;;;;;;5043370;28;20233;-63
2021/12/04 12:56:34;;;;;;;50.50;46.60;;;4.20;99.90;;;;;;5047592;28;20246;-65
2021/12/04 12:59:33;;;;;;;53.63;49.13;;;4.20;99.90;;;;;;5058706;28;20856;-66
2021/12/04 13:12:00;;;;;;;53.77;49.43;;;4.20;99.90;;;;;;5000018;28;20303;-63
2021/12/04 13:14:51;;;;;;;48.90;45.17;;;4.20;99.90;;;;;;5038336;28;20228;-64
2021/12/04 13:17:41;;;;;;;53.23;48.90;;;4.10;99.90;;;;;;5041402;28;20424;-67
2021/12/04 13:20:30;;;;;;;53.27;49.00;;;4.20;99.90;;;;;;5057438;28;20688;-64
2021/12/04 13:23:22;;;;;;;52.33;47.97;;;4.10;99.90;;;;;;5043359;28;20250;-65
2021/12/04 13:26:13;;;;;;;52.93;48.63;;;4.10;99.90;;;;;;5058891;28;20698;-63
2021/12/04 13:29:04;;;;;;;53.60;49.37;;;4.10;99.90;;;;;;5057413;28;20218;-65
2021/12/04 13:31:54;;;;;;;51.80;47.53;;;4.10;99.90;;;;;;5064206;28;20222;-64
2021/12/04 13:34:44;;;;;;;51.33;47.43;;;4.10;99.90;;;;;;5063322;28;20234;-64
2021/12/04 13:37:33;;;;;;;50.13;46.17;;;4.00;99.90;;;;;;5060355;28;20235;-63
2021/12/04 13:40:22;;;;;;;52.77;48.50;;;3.90;99.90;;;;;;5061437;28;20303;-63
2021/12/04 13:43:14;;;;;;;51.20;47.10;;;3.90;99.90;;;;;;5043324;28;20227;-63
2021/12/04 13:46:05;;;;;;;51.87;47.87;;;3.90;99.90;;;;;;5060480;28;20255;-65
2021/12/04 13:49:00;;;;;;;52.60;48.67;;;3.90;99.90;;;;;;5051022;28;20219;-63
2021/12/04 13:51:53;;;;;;;52.17;47.83;;;3.80;99.90;;;;;;5065760;28;20229;-64
2021/12/04 13:54:46;;;;;;;52.10;48.10;;;3.70;99.90;;;;;;5045596;28;20253;-64
2021/12/04 13:57:39;;;;;;;52.20;48.20;;;3.70;99.90;;;;;;5048290;28;20226;-66
2021/12/04 14:00:29;;;;;;;52.83;48.83;;;3.60;99.90;;;;;;5058150;28;20229;-65
2021/12/04 14:03:24;;;;;;;53.33;49.07;;;3.60;99.90;;;;;;5044477;28;20245;-66
2021/12/04 14:06:15;;;;;;;53.37;49.07;;;3.60;99.90;;;;;;5057871;28;20209;-65
2021/12/04 14:09:05;;;;;;;53.37;49.27;;;3.50;99.90;;;;;;5059337;28;20361;-66
2021/12/04 14:11:56;;;;;;;55.43;50.90;;;3.40;99.90;;;;;;5058474;28;20236;-64
2021/12/04 14:14:45;;;;;;;53.47;49.33;;;3.40;99.90;;;;;;5044640;28;20475;-63
2021/12/04 14:17:35;;;;;;;53.67;49.27;;;3.40;99.90;;;;;;5047689;28;20225;-65
2021/12/04 14:20:25;;;;;;;54.70;50.10;;;3.40;99.90;;;;;;5026067;28;20653;-63
2021/12/04 14:23:13;;;;;;;55.00;50.70;;;3.40;99.90;;;;;;5060563;28;20684;-65
2021/12/04 14:26:04;;;;;;;53.83;49.67;;;3.30;99.90;;;;;;5060900;28;20225;-66
2021/12/04 14:28:53;;;;;;;55.30;50.90;;;3.40;99.90;;;;;;5044319;28;20227;-65
2021/12/04 14:31:46;;;;;;;52.20;48.00;;;3.40;99.90;;;;;;5044036;28;20234;-65
2021/12/04 14:34:36;;;;;;;55.27;50.77;;;3.30;99.90;;;;;;5059919;28;20224;-65
2021/12/04 14:37:26;;;;;;;53.57;49.47;;;3.20;99.90;;;;;;5055991;28;20270;-65
2021/12/04 14:40:18;;;;;;;54.03;49.87;;;3.10;99.90;;;;;;5058896;28;20229;-65
2021/12/04 14:43:07;;;;;;;55.60;51.17;;;3.10;99.90;;;;;;5045163;28;20235;-64
2021/12/04 14:45:58;;;;;;;55.10;50.63;;;3.10;99.90;;;;;;5049056;28;20300;-64
2021/12/04 14:48:52;;;;;;;55.30;50.53;;;2.90;99.90;;;;;;5048461;28;20236;-65
2021/12/04 14:51:42;;;;;;;55.80;51.27;;;2.90;99.90;;;;;;5058599;28;20224;-64
2021/12/04 14:54:32;;;;;;;57.53;52.87;;;2.80;99.90;;;;;;5024656;28;20227;-66
2021/12/04 14:57:24;;;;;;;57.23;52.50;;;2.70;99.90;;;;;;5052647;28;20227;-64
2021/12/04 15:00:16;;;;;;;58.60;53.70;;;2.60;99.90;;;;;;5061212;28;20221;-64
2021/12/04 15:03:09;;;;;;;57.50;52.60;;;2.70;99.90;;;;;;5057825;28;20294;-65
2021/12/04 15:06:00;;;;;;;57.17;52.37;;;2.60;99.90;;;;;;5057748;28;20269;-63
2021/12/04 15:08:53;;;;;;;60.40;55.27;;;2.60;99.90;;;;;;5033468;28;20225;-64
2021/12/04 15:11:44;;;;;;;58.07;53.10;;;2.60;99.90;;;;;;5027201;28;20594;-64
2021/12/04 15:14:34;;;;;;;59.30;54.43;;;2.60;99.90;;;;;;5045601;28;20224;-66
2021/12/04 15:17:23;;;;;;;56.73;51.73;;;2.60;99.90;;;;;;5054659;28;20220;-65
2021/12/04 15:20:19;;;;;;;58.20;53.30;;;2.60;99.90;;;;;;5044216;28;20216;-64
2021/12/04 15:23:13;;;;;;;59.03;53.77;;;2.70;99.90;;;;;;5056664;28;20223;-66
2021/12/04 15:26:13;;;;;;;57.00;51.87;;;2.70;99.90;;;;;;5042312;28;20226;-66
2021/12/04 15:29:01;;;;;;;59.87;54.77;;;2.70;99.90;;;;;;5056513;28;20217;-66
2021/12/04 15:31:52;;;;;;;59.20;53.93;;;2.70;99.90;;;;;;5061047;28;20232;-65
2021/12/04 15:34:47;;;;;;;58.83;53.20;;;2.70;99.90;;;;;;5054263;28;20217;-65
2021/12/04 15:37:41;;;;;;;59.37;54.17;;;2.60;99.90;;;;;;5052873;28;20227;-65
2021/12/04 15:40:38;;;;;;;59.20;54.23;;;2.60;99.90;;;;;;5058872;28;20677;-66
2021/12/04 15:43:37;;;;;;;59.27;53.67;;;2.60;99.90;;;;;;5056206;28;20226;-65
2021/12/04 15:46:37;;;;;;;60.53;54.93;;;2.60;99.90;;;;;;5054449;28;20224;-64
2021/12/04 15:49:51;;;;;;;58.00;52.23;;;2.60;99.90;;;;;;5056970;28;20696;-65
2021/12/04 15:52:51;;;;;;;59.97;54.67;;;2.70;99.90;;;;;;5053151;28;20224;-65
2021/12/04 15:55:43;;;;;;;61.80;56.20;;;2.70;99.90;;;;;;5028192;28;20243;-64
2021/12/04 15:58:35;;;;;;;60.90;55.30;;;2.70;99.90;;;;;;5074088;28;20657;-65
2021/12/04 16:01:29;;;;;;;60.47;54.97;;;2.70;99.90;;;;;;5041598;28;20224;-64
2021/12/04 16:04:22;;;;;;;60.23;54.60;;;2.70;99.90;;;;;;5039006;28;20673;-64
2021/12/04 16:07:23;;;;;;;59.80;54.67;;;2.80;99.90;;;;;;5058424;28;20623;-65
2021/12/04 16:10:14;;;;;;;58.80;53.50;;;2.80;99.90;;;;;;5058107;28;20232;-64
2021/12/04 16:13:03;;;;;;;58.20;53.30;;;2.80;99.90;;;;;;5046065;28;20238;-65
2021/12/04 16:15:55;;;;;;;61.27;55.77;;;2.80;99.90;;;;;;5059923;28;20230;-65
2021/12/04 16:18:44;;;;;;;60.53;54.73;;;2.80;99.90;;;;;;5056461;28;20239;-64
2021/12/04 16:21:35;;;;;;;58.27;53.27;;;2.80;99.90;;;;;;5036859;28;20251;-64
2021/12/04 16:24:23;;;;;;;63.20;57.43;;;2.90;99.90;;;;;;5046704;28;20296;-64
2021/12/04 16:27:18;;;;;;;61.00;55.67;;;2.80;99.90;;;;;;5045990;28;20209;-64
2021/12/04 16:30:24;;;;;;;61.37;55.83;;;2.80;99.90;;;;;;5042630;28;20228;-65
2021/12/04 16:33:28;;;;;;;60.73;54.97;;;2.80;99.90;;;;;;5055496;28;20560;-64
2021/12/04 16:36:24;;;;;;;60.77;55.37;;;2.90;99.90;;;;;;5059575;28;20221;-66
2021/12/04 16:39:29;;;;;;;58.50;53.10;;;2.90;99.90;;;;;;5055769;28;20246;-63
2021/12/04 16:42:18;;;;;;;63.23;57.33;;;2.90;99.90;;;;;;5057606;28;20208;-64
2021/12/04 16:45:10;;;;;;;60.27;54.87;;;2.90;99.90;;;;;;5055524;28;20235;-63
2021/12/04 16:48:02;;;;;;;58.97;53.63;;;2.90;99.90;;;;;;5058492;28;20231;-63
2021/12/04 17:00:23;;;;;;;58.77;53.43;;;2.70;99.90;;;;;;5030584;28;20243;-63
2021/12/04 17:03:12;;;;;;;63.00;57.10;;;2.80;99.90;;;;;;5035460;28;20229;-67
2021/12/04 17:06:02;;;;;;;59.60;54.13;;;2.80;99.90;;;;;;5040166;28;20693;-65
2021/12/04 17:08:51;;;;;;;60.70;55.33;;;2.80;99.90;;;;;;5070136;28;20231;-64
2021/12/04 17:11:41;;;;;;;59.60;53.93;;;2.80;99.90;;;;;;5042684;28;20225;-66